Time;durP1;ratioP1;P1;durP2;ratioP2;P2;SDS_P1;SDS_P2;PMS_P1;PMS_P2;Temp;Humidity;BMP_temperature;BMP_pressure;BME280_temperature;BME280_humidity;BME280_pressure;Samples;Min_cycle;Max_cycle;Signal;HPM_P1;HPM_P2
2022/04/03 00:01:22;;;;;;;6.50;3.57;;;10.50;33.60;;;;;;4971545;28;20019;-40
2022/04/03 00:03:48;;;;;;;5.73;4.13;;;10.60;33.50;;;;;;4973962;28;20038;-40
2022/04/03 00:06:13;;;;;;;7.97;4.10;;;10.50;34.10;;;;;;4976064;28;20098;-40
2022/04/03 00:08:40;;;;;;;6.67;4.00;;;10.60;34.00;;;;;;4976953;28;20033;-40
2022/04/03 00:11:06;;;;;;;6.80;4.30;;;10.50;34.00;;;;;;4976198;28;20034;-40
2022/04/03 00:13:31;;;;;;;6.63;4.40;;;10.50;34.00;;;;;;4976876;28;20038;-40
2022/04/03 00:15:57;;;;;;;6.43;4.37;;;10.50;34.20;;;;;;4975821;28;20065;-40
2022/04/03 00:18:23;;;;;;;7.47;4.73;;;10.50;34.70;;;;;;4976510;28;20033;-40
2022/04/03 00:20:49;;;;;;;5.97;4.13;;;10.50;35.00;;;;;;4975650;28;20045;-40
2022/04/03 00:23:15;;;;;;;8.37;5.23;;;10.40;35.30;;;;;;4976623;28;20530;-40
2022/04/03 00:25:41;;;;;;;6.53;4.50;;;10.40;35.70;;;;;;4975772;28;20054;-39
2022/04/03 00:28:06;;;;;;;5.97;4.23;;;10.40;35.60;;;;;;4976414;28;20425;-40
2022/04/03 00:30:33;;;;;;;6.47;4.83;;;10.40;35.70;;;;;;4975832;28;20027;-40
2022/04/03 00:32:59;;;;;;;7.20;4.43;;;10.40;35.70;;;;;;4974260;28;20085;-40
2022/04/03 00:35:25;;;;;;;5.33;4.60;;;10.30;35.90;;;;;;4974777;28;20034;-40
2022/04/03 00:37:51;;;;;;;6.97;4.77;;;10.40;36.00;;;;;;4975852;28;20053;-40
2022/04/03 00:40:17;;;;;;;8.23;5.07;;;10.30;35.90;;;;;;4974895;28;20035;-40
2022/04/03 00:42:43;;;;;;;7.17;4.47;;;10.30;35.90;;;;;;4976197;28;20042;-40
2022/04/03 00:45:10;;;;;;;7.17;4.50;;;10.30;36.10;;;;;;4975860;28;20110;-40
2022/04/03 00:47:35;;;;;;;7.87;4.73;;;10.30;36.10;;;;;;4976087;28;20022;-40
2022/04/03 00:50:02;;;;;;;5.97;4.73;;;10.30;36.20;;;;;;4974087;28;20034;-40
2022/04/03 00:52:28;;;;;;;6.53;4.70;;;10.30;36.00;;;;;;4974608;28;20114;-40
2022/04/03 00:54:53;;;;;;;7.00;4.93;;;10.30;36.00;;;;;;4975860;28;20189;-40
2022/04/03 00:57:24;;;;;;;8.00;4.77;;;10.40;35.80;;;;;;4975554;28;20030;-40
2022/04/03 00:59:50;;;;;;;8.03;4.60;;;10.30;35.30;;;;;;4975809;28;20102;-40
2022/04/03 01:02:17;;;;;;;7.60;4.43;;;10.30;35.60;;;;;;4974911;28;20035;-40
2022/04/03 01:04:42;;;;;;;5.87;4.27;;;10.30;35.80;;;;;;4975124;28;20027;-40
2022/04/03 01:07:08;;;;;;;9.20;5.83;;;10.20;36.20;;;;;;4974147;28;20035;-40
2022/04/03 01:09:36;;;;;;;6.70;5.17;;;10.20;37.00;;;;;;4975102;28;20027;-40
2022/04/03 01:12:02;;;;;;;8.93;4.50;;;10.20;36.70;;;;;;4974423;28;20035;-40
2022/04/03 01:14:46;;;;;;;8.43;4.93;;;10.30;36.60;;;;;;4974386;28;20063;-40
2022/04/03 01:17:13;;;;;;;7.07;4.10;;;10.40;35.60;;;;;;4973654;28;20106;-40
2022/04/03 01:19:40;;;;;;;6.43;4.40;;;10.30;36.10;;;;;;4974045;28;20117;-40
2022/04/03 01:22:06;;;;;;;6.17;4.17;;;10.30;35.50;;;;;;4973419;28;20423;-40
2022/04/03 01:24:32;;;;;;;7.03;4.07;;;10.30;35.40;;;;;;4975586;28;20089;-40
2022/04/03 01:26:57;;;;;;;5.47;3.93;;;10.30;35.50;;;;;;4974648;28;20436;-40
2022/04/03 01:29:23;;;;;;;6.87;4.33;;;10.20;36.60;;;;;;4974804;28;20042;-40
2022/04/03 01:31:50;;;;;;;5.73;4.23;;;10.30;35.50;;;;;;4973783;28;20477;-40
2022/04/03 01:34:17;;;;;;;6.37;4.43;;;10.30;35.60;;;;;;4975079;28;20457;-40
2022/04/03 01:36:45;;;;;;;6.00;4.43;;;10.20;36.60;;;;;;4974792;28;20042;-40
2022/04/03 01:39:11;;;;;;;12.50;7.00;;;10.30;36.50;;;;;;4975025;28;20492;-40
2022/04/03 01:41:38;;;;;;;11.10;7.93;;;10.30;36.80;;;;;;4974515;28;20031;-40
2022/04/03 01:44:08;;;;;;;13.00;8.33;;;10.30;36.80;;;;;;4973908;28;20093;-40
2022/04/03 01:46:34;;;;;;;10.27;7.63;;;10.20;37.30;;;;;;4973960;28;20034;-40
2022/04/03 01:49:00;;;;;;;14.07;7.93;;;10.20;37.40;;;;;;4974693;28;20063;-40
2022/04/03 01:51:26;;;;;;;17.30;7.83;;;10.10;38.30;;;;;;4974399;28;20500;-40
2022/04/03 01:53:51;;;;;;;13.40;8.60;;;10.20;38.40;;;;;;4974182;28;20045;-40
2022/04/03 01:56:17;;;;;;;15.00;8.90;;;10.20;38.10;;;;;;4973923;28;20059;-40
2022/04/03 01:58:43;;;;;;;13.40;9.27;;;10.20;38.50;;;;;;4974914;28;20038;-40
2022/04/03 02:01:08;;;;;;;11.97;8.57;;;10.20;37.80;;;;;;4973890;28;20023;-40
2022/04/03 02:03:34;;;;;;;11.73;8.03;;;10.20;38.00;;;;;;4974629;28;20027;-40
2022/04/03 02:06:00;;;;;;;13.30;8.90;;;10.20;38.10;;;;;;4974053;28;20027;-41
2022/04/03 02:08:26;;;;;;;13.00;8.90;;;10.20;38.20;;;;;;4974511;28;20066;-40
2022/04/03 02:10:52;;;;;;;12.60;8.57;;;10.10;37.00;;;;;;4972707;28;20031;-40
2022/04/03 02:13:18;;;;;;;10.77;8.93;;;10.10;38.10;;;;;;4974400;28;20086;-41
2022/04/03 02:15:44;;;;;;;12.93;9.67;;;10.10;37.90;;;;;;4972194;28;20046;-40
2022/04/03 02:18:09;;;;;;;13.80;9.20;;;10.00;37.70;;;;;;4974312;28;20495;-40
2022/04/03 02:20:36;;;;;;;12.70;9.20;;;10.10;38.10;;;;;;4974758;28;20556;-40
2022/04/03 02:23:03;;;;;;;13.00;9.50;;;10.20;37.60;;;;;;4956375;28;20397;-40
2022/04/03 02:25:30;;;;;;;12.87;9.20;;;10.10;37.90;;;;;;4973485;28;20436;-40
2022/04/03 02:27:56;;;;;;;14.40;8.90;;;10.10;37.50;;;;;;4973475;28;20023;-40
2022/04/03 02:30:23;;;;;;;12.50;9.10;;;10.10;37.10;;;;;;4974323;28;20114;-40
2022/04/03 02:32:49;;;;;;;13.03;8.90;;;10.20;37.40;;;;;;4973470;28;20027;-40
2022/04/03 02:35:15;;;;;;;13.67;9.67;;;10.10;37.20;;;;;;4974056;28;20038;-40
2022/04/03 02:37:42;;;;;;;13.23;9.37;;;10.20;37.70;;;;;;4973078;28;20495;-41
2022/04/03 02:40:10;;;;;;;12.47;9.13;;;10.10;37.70;;;;;;4973359;28;20038;-40
2022/04/03 02:42:36;;;;;;;15.63;9.27;;;10.10;37.80;;;;;;4973159;28;20459;-40
2022/04/03 02:45:04;;;;;;;13.43;8.63;;;10.00;37.60;;;;;;4955815;28;20035;-40
2022/04/03 02:47:29;;;;;;;10.90;8.10;;;10.00;38.00;;;;;;4973193;28;20503;-40
2022/04/03 02:49:55;;;;;;;13.23;8.30;;;10.00;37.90;;;;;;4973758;28;20031;-40
2022/04/03 02:52:21;;;;;;;15.60;7.90;;;9.90;37.80;;;;;;4972879;28;20122;-40
2022/04/03 02:54:47;;;;;;;11.63;8.00;;;9.80;38.10;;;;;;4973796;28;20129;-40
2022/04/03 02:57:15;;;;;;;10.93;8.33;;;9.80;38.00;;;;;;4972972;28;20086;-40
2022/04/03 02:59:41;;;;;;;13.40;8.13;;;9.80;38.40;;;;;;4973706;28;20106;-41
2022/04/03 03:02:07;;;;;;;13.83;8.93;;;9.90;38.40;;;;;;4972691;28;20041;-41
2022/04/03 03:04:35;;;;;;;17.73;10.47;;;10.00;38.50;;;;;;4973847;28;20085;-40
2022/04/03 03:07:05;;;;;;;14.50;10.00;;;9.90;38.80;;;;;;4954990;28;20027;-40
2022/04/03 03:09:31;;;;;;;16.20;11.80;;;10.00;38.60;;;;;;4973513;28;20149;-40
2022/04/03 03:11:58;;;;;;;19.03;12.40;;;9.90;39.10;;;;;;4953729;28;20054;-41
2022/04/03 03:14:23;;;;;;;17.67;12.50;;;9.90;39.30;;;;;;4971924;28;20051;-41
2022/04/03 03:16:49;;;;;;;20.83;13.03;;;9.90;39.20;;;;;;4972894;28;20429;-41
2022/04/03 03:19:15;;;;;;;16.37;11.60;;;9.90;39.90;;;;;;4974271;28;20038;-41
2022/04/03 03:21:42;;;;;;;14.93;10.60;;;9.80;39.40;;;;;;4972692;28;20054;-41
2022/04/03 03:24:09;;;;;;;18.27;11.87;;;9.70;39.30;;;;;;4973497;28;20151;-41
2022/04/03 03:26:35;;;;;;;15.33;11.20;;;9.70;39.40;;;;;;4972539;28;20038;-41
2022/04/03 03:29:01;;;;;;;16.73;11.43;;;9.60;39.30;;;;;;4973217;28;20027;-41
2022/04/03 03:31:27;;;;;;;17.00;11.47;;;9.70;39.60;;;;;;4972924;28;20041;-41
2022/04/03 03:33:52;;;;;;;19.90;13.23;;;9.80;39.30;;;;;;4973323;28;20458;-41
2022/04/03 03:36:18;;;;;;;18.40;12.03;;;9.80;39.50;;;;;;4972562;28;20058;-41
2022/04/03 03:38:44;;;;;;;19.50;13.03;;;9.80;39.70;;;;;;4971720;28;20038;-41
2022/04/03 03:41:10;;;;;;;18.60;12.60;;;9.70;39.60;;;;;;4971190;28;20035;-41
2022/04/03 03:43:36;;;;;;;15.70;10.53;;;9.70;40.10;;;;;;4973395;28;20034;-41
2022/04/03 03:46:02;;;;;;;13.50;9.87;;;9.60;39.90;;;;;;4972524;28;20041;-41
2022/04/03 03:48:28;;;;;;;13.17;9.43;;;9.60;40.00;;;;;;4973084;28;20488;-42
2022/04/03 03:50:54;;;;;;;14.20;9.60;;;9.60;40.00;;;;;;4973245;28;20034;-41
2022/04/03 03:53:20;;;;;;;15.40;10.47;;;9.60;40.30;;;;;;4972420;28;20461;-41
2022/04/03 03:55:46;;;;;;;16.47;9.53;;;9.50;40.50;;;;;;4973288;28;20035;-41
2022/04/03 03:58:12;;;;;;;14.83;9.70;;;9.50;41.60;;;;;;4972232;28;20050;-41
2022/04/03 04:00:38;;;;;;;8.70;7.57;;;9.40;42.60;;;;;;4973046;28;20054;-41
2022/04/03 04:03:04;;;;;;;9.53;7.60;;;9.30;43.80;;;;;;4971501;28;20046;-41
2022/04/03 04:05:30;;;;;;;8.33;7.33;;;9.10;46.10;;;;;;4972838;28;20504;-41
2022/04/03 04:07:55;;;;;;;8.43;7.60;;;9.00;46.00;;;;;;4971303;28;20030;-41
2022/04/03 04:10:21;;;;;;;9.03;7.33;;;8.90;46.30;;;;;;4972953;28;20031;-41
2022/04/03 04:12:47;;;;;;;12.03;7.87;;;9.00;46.00;;;;;;4972276;28;20094;-41
2022/04/03 04:15:14;;;;;;;12.50;7.43;;;9.10;45.60;;;;;;4972753;28;20109;-41
2022/04/03 04:17:44;;;;;;;11.80;7.30;;;9.10;45.20;;;;;;4972375;28;20030;-41
2022/04/03 04:20:13;;;;;;;9.10;7.33;;;9.20;44.60;;;;;;4973132;28;20038;-41
2022/04/03 04:22:43;;;;;;;8.77;7.03;;;9.10;44.80;;;;;;4955036;28;20061;-41
2022/04/03 04:25:11;;;;;;;7.70;6.80;;;9.00;46.40;;;;;;4972744;28;20023;-41
2022/04/03 04:27:37;;;;;;;10.27;7.77;;;8.80;46.90;;;;;;4970579;28;20077;-41
2022/04/03 04:30:04;;;;;;;10.60;6.83;;;9.00;46.60;;;;;;4973050;28;20417;-41
2022/04/03 04:32:30;;;;;;;9.90;7.40;;;9.00;46.00;;;;;;4972278;28;20030;-41
2022/04/03 04:34:55;;;;;;;8.30;7.23;;;9.20;45.40;;;;;;4972811;28;20053;-41
2022/04/03 04:37:21;;;;;;;10.47;7.40;;;9.00;45.40;;;;;;4970517;28;20433;-41
2022/04/03 04:39:56;;;;;;;10.73;7.20;;;9.10;46.30;;;;;;4972025;28;20109;-41
2022/04/03 04:42:22;;;;;;;7.27;6.53;;;9.10;45.30;;;;;;4971527;28;20034;-41
2022/04/03 04:44:48;;;;;;;9.03;7.07;;;9.10;45.30;;;;;;4972647;28;20042;-41
2022/04/03 04:47:14;;;;;;;8.67;6.33;;;9.00;45.00;;;;;;4954632;28;20027;-41
2022/04/03 04:49:39;;;;;;;11.17;6.63;;;9.00;45.10;;;;;;4974821;28;20029;-41
2022/04/03 04:52:06;;;;;;;8.00;7.13;;;9.00;45.50;;;;;;4975505;28;20183;-41
2022/04/03 04:54:32;;;;;;;9.23;7.37;;;9.00;45.80;;;;;;4976024;28;20027;-41
2022/04/03 04:56:58;;;;;;;7.30;5.53;;;9.10;45.40;;;;;;4975432;28;20104;-41
2022/04/03 04:59:24;;;;;;;7.50;6.40;;;9.10;44.80;;;;;;4975851;28;20057;-41
2022/04/03 05:01:49;;;;;;;7.23;6.30;;;9.10;44.70;;;;;;4975312;28;20058;-41
2022/04/03 05:04:15;;;;;;;11.00;6.67;;;9.00;45.00;;;;;;4975905;28;20082;-41
2022/04/03 05:06:42;;;;;;;8.20;6.40;;;9.10;45.20;;;;;;4974822;28;20031;-41
2022/04/03 05:09:08;;;;;;;10.27;6.70;;;9.10;45.60;;;;;;4975094;28;20023;-41
2022/04/03 05:11:34;;;;;;;9.90;7.23;;;9.10;45.00;;;;;;4973889;28;20498;-41
2022/04/03 05:14:00;;;;;;;8.23;6.20;;;9.10;45.10;;;;;;4975509;28;20038;-40
2022/04/03 05:16:26;;;;;;;12.23;7.37;;;9.10;44.90;;;;;;4975765;28;20395;-41
2022/04/03 05:18:55;;;;;;;10.63;6.50;;;9.10;45.00;;;;;;4975003;28;20030;-41
2022/04/03 05:21:22;;;;;;;10.13;6.80;;;9.10;44.90;;;;;;4974222;28;20391;-41
2022/04/03 05:23:49;;;;;;;11.10;6.83;;;9.10;45.00;;;;;;4974841;28;20116;-41
2022/04/03 05:26:16;;;;;;;8.73;6.33;;;9.10;45.20;;;;;;4975463;28;20034;-40
2022/04/03 05:28:43;;;;;;;8.03;6.60;;;9.00;45.30;;;;;;4973224;28;20125;-40
2022/04/03 05:31:08;;;;;;;10.97;7.70;;;9.10;45.20;;;;;;4973682;28;20085;-40
2022/04/03 05:33:35;;;;;;;9.80;6.70;;;9.10;45.60;;;;;;4974360;28;20109;-39
2022/04/03 05:36:01;;;;;;;7.57;6.37;;;9.10;45.00;;;;;;4975227;28;20039;-40
2022/04/03 05:38:26;;;;;;;9.73;7.13;;;9.10;45.00;;;;;;4974210;28;20154;-40
2022/04/03 05:40:52;;;;;;;7.90;7.03;;;9.10;45.50;;;;;;4974264;28;20035;-40
2022/04/03 05:43:17;;;;;;;9.23;6.63;;;9.10;45.30;;;;;;4974326;28;20086;-40
2022/04/03 05:45:43;;;;;;;8.20;6.60;;;9.10;45.40;;;;;;4975101;28;20093;-40
2022/04/03 05:48:09;;;;;;;8.50;6.67;;;9.10;44.90;;;;;;4972945;28;20337;-40
2022/04/03 05:50:38;;;;;;;8.50;6.73;;;9.10;45.50;;;;;;4974963;28;20026;-40
2022/04/03 05:53:04;;;;;;;10.23;5.73;;;9.20;45.00;;;;;;4974253;28;20033;-40
2022/04/03 05:55:30;;;;;;;9.30;6.37;;;9.20;44.80;;;;;;4972959;28;20113;-40
2022/04/03 05:57:56;;;;;;;7.07;5.97;;;9.20;44.60;;;;;;4974074;28;20029;-39
2022/04/03 06:00:23;;;;;;;7.07;5.93;;;9.30;43.80;;;;;;4974010;28;20026;-39
2022/04/03 06:02:50;;;;;;;7.70;6.43;;;9.30;43.20;;;;;;4972088;28;20568;-39
2022/04/03 06:05:21;;;;;;;7.37;5.70;;;9.30;43.20;;;;;;4973445;28;20051;-39
2022/04/03 06:07:47;;;;;;;6.67;5.70;;;9.40;42.50;;;;;;4973409;28;20027;-39
2022/04/03 06:10:14;;;;;;;7.57;4.93;;;9.40;43.10;;;;;;4973985;28;20034;-40
2022/04/03 06:13:02;;;;;;;7.80;6.07;;;9.50;42.50;;;;;;4973727;28;20133;-40
2022/04/03 06:15:33;;;;;;;9.03;5.57;;;9.50;42.10;;;;;;4974427;28;20054;-40
2022/04/03 06:17:59;;;;;;;6.60;5.13;;;9.60;41.60;;;;;;4956708;28;20039;-39
2022/04/03 06:20:25;;;;;;;8.80;4.77;;;9.60;41.00;;;;;;4974681;28;20026;-40
2022/04/03 06:22:51;;;;;;;8.63;4.77;;;9.60;41.00;;;;;;4973812;28;20034;-39
2022/04/03 06:25:18;;;;;;;7.03;5.07;;;9.50;40.40;;;;;;4940851;28;20031;-40
2022/04/03 06:27:43;;;;;;;7.83;4.60;;;9.60;40.50;;;;;;4956179;28;20031;-39
2022/04/03 06:30:10;;;;;;;6.37;5.03;;;9.70;40.20;;;;;;4973229;28;20031;-39
2022/04/03 06:32:35;;;;;;;7.13;4.47;;;9.80;40.10;;;;;;4972727;28;20055;-39
2022/04/03 06:35:01;;;;;;;5.47;4.60;;;9.80;39.20;;;;;;4956585;28;20046;-39
2022/04/03 06:37:27;;;;;;;5.43;4.43;;;9.80;39.00;;;;;;4973147;28;20065;-39
2022/04/03 06:39:53;;;;;;;6.27;4.47;;;9.70;37.70;;;;;;4973518;28;20058;-39
2022/04/03 06:42:19;;;;;;;6.23;4.67;;;9.80;39.00;;;;;;4974155;28;20326;-39
2022/04/03 06:44:44;;;;;;;5.63;4.60;;;9.80;37.70;;;;;;4955925;28;20039;-40
2022/04/03 06:47:10;;;;;;;7.70;5.27;;;9.80;38.30;;;;;;4973646;28;20445;-40
2022/04/03 06:49:40;;;;;;;6.63;4.37;;;9.90;38.00;;;;;;4973402;28;20050;-40
2022/04/03 06:52:07;;;;;;;5.63;4.83;;;9.90;37.50;;;;;;4973742;28;20473;-41
2022/04/03 06:54:32;;;;;;;7.83;4.90;;;9.90;37.00;;;;;;4972120;28;20066;-40
2022/04/03 06:56:58;;;;;;;5.70;4.63;;;10.10;37.00;;;;;;4973769;28;20050;-40
2022/04/03 06:59:24;;;;;;;7.13;5.17;;;10.00;36.70;;;;;;4973174;28;20081;-40
2022/04/03 07:01:49;;;;;;;6.33;5.27;;;9.90;36.80;;;;;;4972216;28;20454;-39
2022/04/03 07:04:15;;;;;;;8.13;4.63;;;9.90;36.40;;;;;;4972773;28;20107;-40
2022/04/03 07:06:41;;;;;;;7.13;5.00;;;9.70;37.20;;;;;;4973395;28;20027;-40
2022/04/03 07:09:06;;;;;;;5.57;5.07;;;9.80;37.60;;;;;;4972839;28;20109;-40
2022/04/03 07:11:32;;;;;;;8.27;5.40;;;9.90;37.40;;;;;;4973583;28;20118;-40
2022/04/03 07:13:57;;;;;;;5.50;4.37;;;9.90;36.60;;;;;;4973129;28;20039;-40
2022/04/03 07:23:07;;;;;;;7.17;5.27;;;9.90;36.40;;;;;;4987662;28;20041;-40
2022/04/03 07:25:32;;;;;;;7.73;5.70;;;9.80;37.00;;;;;;4992828;28;20030;-40
2022/04/03 07:27:58;;;;;;;7.80;5.63;;;9.80;37.00;;;;;;4982201;28;20041;-40
2022/04/03 07:30:24;;;;;;;7.13;5.30;;;10.00;36.80;;;;;;4972637;28;20033;-40
2022/04/03 07:32:49;;;;;;;6.83;5.23;;;10.00;37.00;;;;;;4972565;28;20030;-40
2022/04/03 07:35:15;;;;;;;8.40;5.70;;;10.00;37.20;;;;;;4972990;28;20035;-40
2022/04/03 07:37:41;;;;;;;7.37;5.23;;;10.00;37.70;;;;;;4970861;28;20026;-40
2022/04/03 07:40:07;;;;;;;5.53;5.00;;;10.20;37.30;;;;;;4971715;28;20026;-40
2022/04/03 07:42:34;;;;;;;7.00;4.93;;;10.20;37.10;;;;;;4972493;28;20554;-40
2022/04/03 07:44:59;;;;;;;7.90;5.50;;;10.40;36.90;;;;;;4971747;28;20023;-40
2022/04/03 07:47:25;;;;;;;7.30;5.20;;;10.40;36.20;;;;;;4972458;28;20069;-40
2022/04/03 07:49:51;;;;;;;6.47;5.50;;;10.40;36.90;;;;;;4973179;28;20023;-41
2022/04/03 07:52:16;;;;;;;8.20;5.90;;;10.50;36.90;;;;;;4972590;28;20170;-41
2022/04/03 07:54:42;;;;;;;6.67;5.67;;;10.40;36.80;;;;;;4973161;28;20039;-41
2022/04/03 07:57:08;;;;;;;8.63;6.40;;;10.40;37.50;;;;;;4954809;28;20019;-40
2022/04/03 07:59:36;;;;;;;9.47;6.50;;;10.40;37.70;;;;;;4955640;28;20508;-40
2022/04/03 08:02:02;;;;;;;6.93;6.27;;;10.40;38.10;;;;;;4972891;28;20603;-40
2022/04/03 08:04:29;;;;;;;8.27;6.40;;;10.30;38.20;;;;;;4954635;28;20126;-40
2022/04/03 08:06:54;;;;;;;8.43;6.23;;;10.30;38.60;;;;;;4972784;28;20042;-40
2022/04/03 08:09:21;;;;;;;8.37;6.63;;;10.40;38.80;;;;;;4972201;28;20053;-41
2022/04/03 08:11:46;;;;;;;10.87;6.70;;;10.50;37.90;;;;;;4971622;28;20031;-40
2022/04/03 08:14:12;;;;;;;6.97;6.03;;;10.60;38.10;;;;;;4971658;28;20527;-41
2022/04/03 08:16:38;;;;;;;15.90;12.07;;;10.60;38.20;;;;;;4972163;28;20047;-40
2022/04/03 08:19:03;;;;;;;13.47;10.90;;;10.70;38.30;;;;;;4972155;28;20058;-40
2022/04/03 08:21:30;;;;;;;8.23;6.80;;;10.70;38.00;;;;;;4971288;28;20035;-41
2022/04/03 08:23:56;;;;;;;12.83;7.23;;;10.90;37.70;;;;;;4973395;28;20033;-40
2022/04/03 08:26:42;;;;;;;21.50;12.83;;;10.90;37.10;;;;;;4976431;28;20376;-40
2022/04/03 08:29:07;;;;;;;8.43;7.63;;;10.70;36.90;;;;;;4975313;28;20023;-41
2022/04/03 08:31:34;;;;;;;8.10;7.30;;;10.80;37.80;;;;;;4976345;28;20499;-41
2022/04/03 08:34:00;;;;;;;7.30;6.07;;;10.90;36.70;;;;;;4975568;28;20053;-41
2022/04/03 08:36:25;;;;;;;9.13;6.03;;;11.00;35.20;;;;;;4958876;28;20042;-41
2022/04/03 08:38:52;;;;;;;6.30;5.30;;;11.00;36.30;;;;;;4975146;28;20436;-40
2022/04/03 08:41:17;;;;;;;8.10;5.60;;;11.10;36.40;;;;;;4976234;28;20023;-41
2022/04/03 08:43:46;;;;;;;7.97;5.80;;;11.30;36.20;;;;;;4974041;28;20030;-40
2022/04/03 08:46:12;;;;;;;7.20;5.95;;;11.20;35.90;;;;;;4976105;28;20062;-41
2022/04/03 08:48:43;;;;;;;8.27;6.32;;;11.20;35.90;;;;;;4973938;28;20057;-41
2022/04/03 08:51:08;;;;;;;7.63;6.53;;;11.10;35.90;;;;;;4976167;28;20019;-41
2022/04/03 08:53:35;;;;;;;11.27;7.60;;;11.00;35.90;;;;;;4975326;28;20026;-41
2022/04/03 08:56:01;;;;;;;7.33;5.23;;;11.10;36.10;;;;;;4975970;28;20480;-41
2022/04/03 08:58:27;;;;;;;9.67;6.13;;;11.10;36.40;;;;;;4975155;28;20031;-41
2022/04/03 09:00:54;;;;;;;6.57;5.57;;;11.30;36.10;;;;;;4975788;28;20034;-41
2022/04/03 09:03:20;;;;;;;7.93;5.67;;;11.40;35.50;;;;;;4973745;28;20118;-41
2022/04/03 09:05:45;;;;;;;8.98;6.78;;;11.50;35.50;;;;;;4975882;28;20139;-41
2022/04/03 09:08:11;;;;;;;7.82;5.47;;;11.50;34.90;;;;;;4975029;28;20027;-42
2022/04/03 09:10:39;;;;;;;8.30;6.53;;;11.60;35.30;;;;;;4975834;28;20037;-41
2022/04/03 09:13:05;;;;;;;10.23;7.32;;;11.70;34.90;;;;;;4974335;28;20495;-41
2022/04/03 09:15:31;;;;;;;10.63;7.38;;;11.70;34.40;;;;;;4975528;28;20051;-41
2022/04/03 09:17:59;;;;;;;9.03;7.27;;;11.60;34.40;;;;;;4974826;28;20373;-41
2022/04/03 09:20:27;;;;;;;9.02;6.78;;;11.60;34.60;;;;;;4975605;28;20073;-41
2022/04/03 09:22:58;;;;;;;8.23;6.90;;;11.70;34.80;;;;;;4974888;28;20523;-41
2022/04/03 09:25:30;;;;;;;7.87;7.07;;;11.80;35.00;;;;;;4975682;28;20103;-41
2022/04/03 09:27:58;;;;;;;8.68;6.40;;;11.80;34.60;;;;;;4974707;28;20030;-41
2022/04/03 09:30:34;;;;;;;8.63;7.15;;;11.70;35.60;;;;;;4975569;28;20485;-41
2022/04/03 09:33:01;;;;;;;8.98;6.68;;;11.80;35.10;;;;;;4974473;28;20114;-41
2022/04/03 09:35:50;;;;;;;8.85;6.32;;;;;;;;;;4974357;28;20035;-41
2022/04/03 09:38:17;;;;;;;9.27;6.95;;;11.80;35.00;;;;;;4955808;28;20049;-40
2022/04/03 09:40:47;;;;;;;9.25;6.82;;;11.90;35.10;;;;;;4973896;28;20105;-41
2022/04/03 09:43:26;;;;;;;8.95;6.80;;;12.10;35.10;;;;;;4974178;28;20097;-41
2022/04/03 09:45:58;;;;;;;8.45;6.55;;;12.10;35.00;;;;;;4975183;28;20011;-41
2022/04/03 09:48:23;;;;;;;9.65;7.15;;;12.10;34.40;;;;;;4974465;28;20030;-41
2022/04/03 09:51:05;;;;;;;7.22;6.10;;;12.20;34.80;;;;;;4975071;28;20027;-41
2022/04/03 09:53:41;;;;;;;9.63;6.68;;;12.10;33.70;;;;;;4973543;28;20107;-41
2022/04/03 09:56:15;;;;;;;11.02;7.35;;;12.20;35.20;;;;;;4974853;28;20496;-41
2022/04/03 09:59:05;;;;;;;8.73;6.78;;;12.30;34.80;;;;;;4973806;28;20050;-42
2022/04/03 10:01:38;;;;;;;7.82;6.80;;;12.50;34.30;;;;;;4967456;28;20043;-41
2022/04/03 10:04:05;;;;;;;8.25;6.70;;;12.50;33.50;;;;;;4973846;28;20484;-41
2022/04/03 10:06:32;;;;;;;7.95;7.15;;;12.60;34.20;;;;;;4973448;28;20027;-41
2022/04/03 10:08:59;;;;;;;10.30;7.82;;;12.90;33.80;;;;;;4973900;28;20057;-41
2022/04/03 10:11:25;;;;;;;9.18;7.30;;;12.80;32.30;;;;;;4974656;28;20117;-41
2022/04/03 10:13:52;;;;;;;8.45;6.82;;;13.00;32.90;;;;;;4973882;28;20058;-41
2022/04/03 10:16:19;;;;;;;7.72;6.97;;;12.90;31.50;;;;;;4974441;28;20058;-41
2022/04/03 10:18:47;;;;;;;8.02;7.30;;;12.90;31.10;;;;;;4974099;28;20042;-41
2022/04/03 10:21:19;;;;;;;7.63;6.78;;;13.20;31.30;;;;;;4974414;28;20039;-41
2022/04/03 10:23:46;;;;;;;8.50;7.35;;;13.20;31.20;;;;;;4973872;28;20030;-41
2022/04/03 10:26:17;;;;;;;52.88;32.35;;;13.00;31.50;;;;;;4956898;28;20507;-41
2022/04/03 10:28:52;;;;;;;11.75;10.02;;;13.40;31.20;;;;;;4973201;28;20038;-41
2022/04/03 10:31:18;;;;;;;8.90;8.00;;;13.10;30.20;;;;;;4974143;28;20168;-41
2022/04/03 10:33:48;;;;;;;8.60;7.68;;;13.20;30.50;;;;;;4973303;28;20110;-41
2022/04/03 10:36:17;;;;;;;11.30;6.80;;;13.10;30.00;;;;;;4972180;28;20440;-41
2022/04/03 10:38:55;;;;;;;12.50;8.27;;;13.10;30.00;;;;;;4971979;28;20117;-41
2022/04/03 10:41:26;;;;;;;9.20;7.70;;;13.20;29.60;;;;;;4974052;28;20479;-41
2022/04/03 10:47:04;;;;;;;8.18;6.70;;;13.50;28.20;;;;;;4988134;28;20065;-41
2022/04/03 10:49:45;;;;;;;;;;;13.50;28.30;;;;;;4993938;28;20040;-41
2022/04/03 10:52:24;;;;;;;9.73;5.95;;;13.50;27.80;;;;;;4975769;28;19928;-41
2022/04/03 10:54:57;;;;;;;9.40;7.25;;;13.30;27.80;;;;;;4980008;28;20045;-40
2022/04/03 10:57:38;;;;;;;7.63;6.75;;;13.40;29.10;;;;;;4973724;28;20145;-41
2022/04/03 11:00:12;;;;;;;8.05;6.72;;;13.40;28.80;;;;;;4972820;28;20039;-41
2022/04/03 11:02:39;;;;;;;7.03;6.20;;;13.30;28.10;;;;;;4973441;28;20177;-41
2022/04/03 11:05:27;;;;;;;6.65;5.95;;;13.40;28.00;;;;;;4971605;28;20035;-41
2022/04/03 11:08:00;;;;;;;6.25;5.53;;;13.30;26.60;;;;;;4972181;28;20502;-41
2022/04/03 11:10:57;;;;;;;7.72;6.07;;;13.30;27.20;;;;;;4971477;28;20037;-41
2022/04/03 11:13:29;;;;;;;7.20;5.45;;;13.30;27.00;;;;;;4973679;28;20113;-41
2022/04/03 11:15:57;;;;;;;9.10;5.60;;;13.20;28.10;;;;;;4972763;28;20158;-41
2022/04/03 11:18:32;;;;;;;5.78;5.18;;;13.10;27.80;;;;;;4972846;28;20062;-41
2022/04/03 11:21:16;;;;;;;5.18;4.68;;;13.10;28.10;;;;;;4972944;28;20042;-41
2022/04/03 11:23:45;;;;;;;7.30;5.13;;;13.00;28.30;;;;;;4957789;28;20083;-41
2022/04/03 11:26:12;;;;;;;6.00;4.18;;;13.20;28.10;;;;;;4972714;28;20034;-41
2022/04/03 11:28:39;;;;;;;5.18;4.78;;;13.10;28.10;;;;;;4973345;28;20029;-41
2022/04/03 11:31:05;;;;;;;4.40;4.00;;;13.10;28.50;;;;;;4972929;28;20035;-41
2022/04/03 11:33:32;;;;;;;6.05;4.50;;;13.30;27.50;;;;;;4973387;28;20073;-41
2022/04/03 11:36:03;;;;;;;5.75;4.32;;;13.60;26.50;;;;;;4972816;28;20433;-41
2022/04/03 11:38:35;;;;;;;4.72;4.32;;;13.50;26.60;;;;;;4973165;28;20025;-41
2022/04/03 11:41:15;;;;;;;5.38;4.40;;;13.70;26.40;;;;;;4955408;28;20486;-41
2022/04/03 11:43:41;;;;;;;5.70;4.20;;;14.00;25.70;;;;;;4971883;28;20058;-41
2022/04/03 11:46:08;;;;;;;6.38;4.40;;;13.90;23.70;;;;;;4972461;28;20042;-40
2022/04/03 11:48:46;;;;;;;5.10;4.25;;;13.90;24.20;;;;;;4973177;28;20121;-41
2022/04/03 11:51:17;;;;;;;5.25;4.63;;;13.90;23.20;;;;;;4955766;28;20153;-41
2022/04/03 11:53:45;;;;;;;5.32;4.82;;;14.10;22.80;;;;;;4973416;28;20051;-41
2022/04/03 11:56:16;;;;;;;5.70;5.05;;;14.10;22.30;;;;;;4972377;28;20042;-40
2022/04/03 11:58:50;;;;;;;4.18;3.78;;;14.30;26.60;;;;;;4973874;28;20027;-39
2022/04/03 12:01:26;;;;;;;5.93;3.60;;;14.40;31.90;;;;;;4974724;28;20035;-40
2022/04/03 12:04:13;;;;;;;4.13;3.80;;;;;;;;;;4976995;28;20149;-40
2022/04/03 12:06:43;;;;;;;5.45;4.50;;;14.70;18.00;;;;;;4976420;28;20077;-40
2022/04/03 12:09:11;;;;;;;6.25;4.28;;;15.00;19.40;;;;;;4976860;28;20105;-40
2022/04/03 12:11:39;;;;;;;6.25;5.22;;;15.40;18.90;;;;;;4974614;28;20174;-40
2022/04/03 12:14:08;;;;;;;9.30;5.57;;;15.60;18.20;;;;;;4974491;28;20129;-41
2022/04/03 12:16:38;;;;;;;6.47;4.45;;;15.80;24.10;;;;;;4974861;28;20035;-40
2022/04/03 12:19:05;;;;;;;5.63;3.85;;;16.10;16.40;;;;;;4976615;28;20023;-40
2022/04/03 12:21:42;;;;;;;5.55;4.50;;;16.50;16.40;;;;;;4976108;28;20056;-40
2022/04/03 12:24:11;;;;;;;6.13;5.22;;;;;;;;;;4976748;28;20031;-40
2022/04/03 12:26:37;;;;;;;5.32;4.18;;;19.10;35.30;;;;;;4975785;28;20097;-40
2022/04/03 12:29:07;;;;;;;6.97;5.00;;;20.20;12.20;;;;;;4976591;28;20106;-40
2022/04/03 12:31:34;;;;;;;4.45;3.83;;;21.20;9.20;;;;;;4974438;28;20027;-40
2022/04/03 12:34:09;;;;;;;5.82;4.88;;;22.90;8.80;;;;;;4976390;28;20165;-41
2022/04/03 12:36:48;;;;;;;4.57;4.15;;;23.10;6.60;;;;;;4975604;28;20027;-41
2022/04/03 12:39:27;;;;;;;4.47;4.07;;;;;;;;;;4975224;28;20492;-41
2022/04/03 12:41:54;;;;;;;4.45;3.80;;;22.20;4.90;;;;;;4958292;28;20116;-41
2022/04/03 12:44:20;;;;;;;4.90;4.38;;;22.80;6.20;;;;;;4975928;28;20034;-40
2022/04/03 12:46:46;;;;;;;4.00;3.60;;;23.80;4.50;;;;;;4975558;28;20345;-40
2022/04/03 12:49:19;;;;;;;4.20;3.42;;;26.60;3.50;;;;;;4975934;28;20027;-40
2022/04/03 12:51:48;;;;;;;3.53;3.22;;;;;;;;;;4975464;28;20370;-40
2022/04/03 12:54:15;;;;;;;4.47;4.07;;;29.50;1.00;;;;;;4975954;28;20027;-40
2022/04/03 12:59:38;;;;;;;3.60;3.00;;;26.30;1.40;;;;;;4976246;28;20037;-40
2022/04/03 13:02:08;;;;;;;3.33;3.00;;;23.60;1.00;;;;;;4975169;28;20031;-40
2022/04/03 13:04:34;;;;;;;4.63;3.45;;;23.80;1.00;;;;;;4976095;28;20429;-40